Forestville, Canada
Current Conditions -  °F | °C
As of 7:00 AM on Monday 20 Oct 2014 (Local Time) from CYYY Reporting Station
Broken Clouds Broken Clouds  
Wind Chill: -4°   Ceiling: 9000
Heat Index:   Visibility: 30mi
Dew Point: -2°   Wind: 18mph
Humidity: 75%   Direction: 270°W
Pressure: 29.7"   Gusts: 26mph
Location:  48.73°N, 69.07°W
Report Text: CYYY 201100Z 27016G23KT 30SM SCT030 BKN090 02/M02 A2970 RMK SC3AC4 SLP058
Loading
Personal Weather Stations






























Interactive Weather Map
Tropical Storm Tracking
New forecast layout! Learn more

10-Day Weather Forecast

Advertisements
Track Severe Weather on mobile